sensor_id;sensor_type;location;lat;lon;timestamp;P1;durP1;ratioP1;P2;durP2;ratioP2
321;SDS011;148;51.480;7.208;2024-03-08T00:01:59;32.50;;;17.00;;
321;SDS011;148;51.480;7.208;2024-03-08T17:25:19;34.90;;;15.90;;
321;SDS011;148;51.480;7.208;2024-03-08T17:32:49;27.70;;;13.40;;
321;SDS011;148;51.480;7.208;2024-03-08T17:35:20;24.50;;;12.60;;
321;SDS011;148;51.480;7.208;2024-03-08T17:37:46;33.85;;;13.30;;
321;SDS011;148;51.480;7.208;2024-03-08T17:42:50;28.20;;;12.50;;
321;SDS011;148;51.480;7.208;2024-03-08T17:52:43;33.60;;;14.80;;
321;SDS011;148;51.480;7.208;2024-03-08T18:00:09;48.60;;;21.30;;
321;SDS011;148;51.480;7.208;2024-03-08T18:39:48;56.35;;;24.80;;
321;SDS011;148;51.480;7.208;2024-03-08T18:42:15;50.15;;;22.70;;
321;SDS011;148;51.480;7.208;2024-03-08T18:47:23;45.17;;;20.37;;
321;SDS011;148;51.480;7.208;2024-03-08T18:52:17;47.40;;;20.25;;
321;SDS011;148;51.480;7.208;2024-03-08T18:59:35;44.17;;;18.90;;
321;SDS011;148;51.480;7.208;2024-03-08T19:02:01;44.57;;;18.73;;
321;SDS011;148;51.480;7.208;2024-03-08T19:04:28;45.43;;;20.10;;
321;SDS011;148;51.480;7.208;2024-03-08T19:06:54;53.73;;;20.70;;
321;SDS011;148;51.480;7.208;2024-03-08T19:09:19;60.60;;;24.55;;
321;SDS011;148;51.480;7.208;2024-03-08T19:11:45;45.90;;;21.70;;
321;SDS011;148;51.480;7.208;2024-03-08T20:00:42;46.77;;;21.83;;
321;SDS011;148;51.480;7.208;2024-03-08T20:03:09;60.70;;;25.50;;
321;SDS011;148;51.480;7.208;2024-03-08T20:05:35;56.35;;;24.90;;
321;SDS011;148;51.480;7.208;2024-03-08T20:15:33;56.60;;;24.00;;
321;SDS011;148;51.480;7.208;2024-03-08T20:20:29;65.67;;;24.50;;
321;SDS011;148;51.480;7.208;2024-03-08T20:25:21;60.27;;;25.23;;
321;SDS011;148;51.480;7.208;2024-03-08T20:27:54;51.87;;;23.57;;
321;SDS011;148;51.480;7.208;2024-03-08T20:30:26;52.80;;;23.00;;
321;SDS011;148;51.480;7.208;2024-03-08T20:32:55;51.70;;;22.90;;
321;SDS011;148;51.480;7.208;2024-03-08T20:35:22;58.23;;;24.90;;
321;SDS011;148;51.480;7.208;2024-03-08T20:37:49;51.20;;;22.70;;
321;SDS011;148;51.480;7.208;2024-03-08T20:42:40;56.90;;;24.05;;
321;SDS011;148;51.480;7.208;2024-03-08T20:45:06;49.80;;;21.53;;
321;SDS011;148;51.480;7.208;2024-03-08T20:47:33;54.15;;;23.05;;
321;SDS011;148;51.480;7.208;2024-03-08T20:50:03;50.33;;;21.93;;
321;SDS011;148;51.480;7.208;2024-03-08T20:52:33;59.23;;;25.00;;
321;SDS011;148;51.480;7.208;2024-03-08T20:54:59;61.00;;;23.80;;
321;SDS011;148;51.480;7.208;2024-03-08T20:57:25;51.95;;;22.15;;
321;SDS011;148;51.480;7.208;2024-03-08T20:59:50;56.93;;;23.23;;
321;SDS011;148;51.480;7.208;2024-03-08T21:02:16;59.40;;;25.37;;
321;SDS011;148;51.480;7.208;2024-03-08T21:04:42;56.70;;;25.17;;
321;SDS011;148;51.480;7.208;2024-03-08T21:07:08;72.57;;;28.53;;
321;SDS011;148;51.480;7.208;2024-03-08T21:09:34;61.60;;;24.97;;
321;SDS011;148;51.480;7.208;2024-03-08T21:12:01;58.57;;;24.67;;
321;SDS011;148;51.480;7.208;2024-03-08T21:14:31;55.20;;;23.40;;
321;SDS011;148;51.480;7.208;2024-03-08T21:17:00;62.43;;;24.63;;
321;SDS011;148;51.480;7.208;2024-03-08T21:19:26;62.63;;;25.63;;
321;SDS011;148;51.480;7.208;2024-03-08T21:21:52;66.47;;;24.53;;
321;SDS011;148;51.480;7.208;2024-03-08T21:24:19;66.87;;;24.70;;
321;SDS011;148;51.480;7.208;2024-03-08T21:26:48;60.13;;;25.70;;
321;SDS011;148;51.480;7.208;2024-03-08T21:29:18;56.87;;;23.13;;
321;SDS011;148;51.480;7.208;2024-03-08T21:31:45;52.70;;;22.60;;
321;SDS011;148;51.480;7.208;2024-03-08T21:34:11;55.77;;;21.70;;
321;SDS011;148;51.480;7.208;2024-03-08T21:36:36;68.07;;;27.60;;
321;SDS011;148;51.480;7.208;2024-03-08T21:46:21;55.37;;;22.63;;
321;SDS011;148;51.480;7.208;2024-03-08T21:48:47;60.63;;;22.80;;
321;SDS011;148;51.480;7.208;2024-03-08T21:51:13;59.40;;;24.17;;
321;SDS011;148;51.480;7.208;2024-03-08T21:53:38;61.23;;;25.13;;
321;SDS011;148;51.480;7.208;2024-03-08T21:56:05;58.53;;;24.10;;
321;SDS011;148;51.480;7.208;2024-03-08T21:58:31;74.50;;;25.85;;
321;SDS011;148;51.480;7.208;2024-03-08T22:00:58;62.70;;;25.10;;
321;SDS011;148;51.480;7.208;2024-03-08T22:03:26;69.10;;;27.45;;
321;SDS011;148;51.480;7.208;2024-03-08T22:05:56;63.70;;;25.25;;
321;SDS011;148;51.480;7.208;2024-03-08T22:08:21;51.90;;;24.40;;
321;SDS011;148;51.480;7.208;2024-03-08T22:10:47;65.90;;;25.23;;
321;SDS011;148;51.480;7.208;2024-03-08T22:13:12;62.60;;;26.27;;
321;SDS011;148;51.480;7.208;2024-03-08T22:15:38;59.90;;;25.20;;
321;SDS011;148;51.480;7.208;2024-03-08T22:18:05;58.47;;;25.63;;
321;SDS011;148;51.480;7.208;2024-03-08T22:20:34;60.97;;;24.57;;
321;SDS011;148;51.480;7.208;2024-03-08T22:23:01;59.20;;;23.65;;
321;SDS011;148;51.480;7.208;2024-03-08T22:25:27;65.20;;;24.40;;
321;SDS011;148;51.480;7.208;2024-03-08T22:27:53;71.20;;;27.20;;
321;SDS011;148;51.480;7.208;2024-03-08T22:30:19;63.70;;;27.70;;
321;SDS011;148;51.480;7.208;2024-03-08T22:32:48;60.95;;;25.20;;
321;SDS011;148;51.480;7.208;2024-03-08T22:35:16;57.27;;;23.87;;
321;SDS011;148;51.480;7.208;2024-03-08T22:37:42;64.30;;;25.60;;
321;SDS011;148;51.480;7.208;2024-03-08T22:40:08;54.43;;;23.90;;
321;SDS011;148;51.480;7.208;2024-03-08T22:42:38;63.40;;;25.65;;
321;SDS011;148;51.480;7.208;2024-03-08T22:45:08;63.77;;;26.60;;
321;SDS011;148;51.480;7.208;2024-03-08T22:47:35;67.07;;;26.43;;
321;SDS011;148;51.480;7.208;2024-03-08T22:50:13;59.53;;;26.17;;
321;SDS011;148;51.480;7.208;2024-03-08T22:52:40;57.33;;;24.30;;
321;SDS011;148;51.480;7.208;2024-03-08T22:55:10;55.20;;;24.80;;
321;SDS011;148;51.480;7.208;2024-03-08T22:57:37;64.05;;;23.50;;
321;SDS011;148;51.480;7.208;2024-03-08T23:00:07;57.55;;;23.80;;
321;SDS011;148;51.480;7.208;2024-03-08T23:05:51;70.10;;;27.20;;
321;SDS011;148;51.480;7.208;2024-03-08T23:08:17;65.77;;;26.93;;
321;SDS011;148;51.480;7.208;2024-03-08T23:10:44;60.53;;;26.00;;
321;SDS011;148;51.480;7.208;2024-03-08T23:13:14;60.17;;;25.23;;
321;SDS011;148;51.480;7.208;2024-03-08T23:15:41;63.50;;;24.23;;
321;SDS011;148;51.480;7.208;2024-03-08T23:18:08;68.60;;;27.93;;
321;SDS011;148;51.480;7.208;2024-03-08T23:20:40;65.90;;;27.70;;
321;SDS011;148;51.480;7.208;2024-03-08T23:23:12;54.20;;;24.40;;
321;SDS011;148;51.480;7.208;2024-03-08T23:25:39;54.97;;;24.63;;
321;SDS011;148;51.480;7.208;2024-03-08T23:28:08;57.70;;;24.50;;
321;SDS011;148;51.480;7.208;2024-03-08T23:30:36;61.40;;;25.80;;
321;SDS011;148;51.480;7.208;2024-03-08T23:33:08;48.03;;;22.07;;
321;SDS011;148;51.480;7.208;2024-03-08T23:35:37;55.40;;;23.30;;
321;SDS011;148;51.480;7.208;2024-03-08T23:38:07;65.57;;;28.10;;
321;SDS011;148;51.480;7.208;2024-03-08T23:40:35;72.50;;;30.50;;
321;SDS011;148;51.480;7.208;2024-03-08T23:43:03;81.95;;;31.90;;
